createdAt,value
2018-05-21T00:00:29.756Z,73.70
2018-05-21T00:02:56.105Z,73.70
2018-05-21T00:05:22.494Z,73.60
2018-05-21T00:07:48.929Z,73.00
2018-05-21T00:10:15.261Z,72.50
2018-05-21T00:12:41.632Z,73.00
2018-05-21T00:15:07.973Z,73.30
2018-05-21T00:17:35.353Z,73.90
2018-05-21T00:20:01.666Z,73.80
2018-05-21T00:22:28.810Z,72.60
2018-05-21T00:24:55.875Z,72.90
2018-05-21T00:27:23.077Z,73.40
2018-05-21T00:29:49.449Z,73.40
2018-05-21T00:32:16.535Z,73.70
2018-05-21T00:34:42.880Z,73.70
2018-05-21T00:37:09.454Z,72.90
2018-05-21T00:39:36.516Z,73.20
2018-05-21T00:42:03.601Z,73.70
2018-05-21T00:44:29.920Z,73.60
2018-05-21T00:46:56.505Z,74.00
2018-05-21T00:49:22.977Z,73.60
2018-05-21T00:51:49.497Z,73.30
2018-05-21T00:54:15.924Z,73.70
2018-05-21T00:56:42.997Z,72.90
2018-05-21T00:59:09.293Z,72.80
2018-05-21T01:01:35.625Z,73.00
2018-05-21T01:04:02.001Z,73.30
2018-05-21T01:06:28.341Z,73.20
2018-05-21T01:08:54.730Z,72.90
2018-05-21T01:11:21.925Z,72.20
2018-05-21T01:13:48.246Z,72.10
2018-05-21T01:16:14.558Z,72.80
2018-05-21T01:18:41.797Z,73.60
2018-05-21T01:21:08.892Z,72.60
2018-05-21T01:23:35.207Z,72.60
2018-05-21T01:26:01.538Z,72.60
2018-05-21T01:28:28.068Z,72.00
2018-05-21T01:30:54.408Z,72.50
2018-05-21T01:33:20.728Z,73.40
2018-05-21T01:35:47.054Z,74.10
2018-05-21T01:38:13.537Z,73.50
2018-05-21T01:40:39.888Z,73.50
2018-05-21T01:43:06.207Z,73.30
2018-05-21T01:45:32.605Z,73.30
2018-05-21T01:47:58.989Z,73.90
2018-05-21T01:50:25.341Z,73.90
2018-05-21T01:52:51.738Z,73.90
2018-05-21T01:55:18.304Z,73.80
2018-05-21T01:57:45.357Z,73.50
2018-05-21T02:00:11.706Z,73.50
2018-05-21T02:02:38.022Z,73.60
2018-05-21T02:05:04.336Z,73.20
2018-05-21T02:07:31.452Z,73.00
2018-05-21T02:09:57.797Z,73.00
2018-05-21T02:12:24.101Z,73.40
2018-05-21T02:14:51.192Z,73.00
2018-05-21T02:17:18.389Z,74.00
2018-05-21T02:19:44.711Z,73.20
2018-05-21T02:22:11.033Z,72.60
2018-05-21T02:24:37.373Z,73.20
2018-05-21T02:27:04.110Z,72.90
2018-05-21T02:29:30.438Z,73.40
2018-05-21T02:31:56.746Z,73.70
2018-05-21T02:34:23.905Z,73.90
2018-05-21T02:36:50.270Z,73.90
2018-05-21T02:39:16.644Z,73.50
2018-05-21T02:41:43.753Z,74.20
2018-05-21T02:44:10.066Z,74.20
2018-05-21T02:46:36.624Z,74.60
2018-05-21T02:49:03.053Z,73.70
2018-05-21T02:51:30.054Z,73.90
2018-05-21T02:53:57.157Z,73.70
2018-05-21T02:56:23.602Z,73.60
2018-05-21T02:58:50.257Z,73.80
2018-05-21T03:01:16.622Z,74.00
2018-05-21T03:03:42.917Z,74.40
2018-05-21T03:06:09.245Z,74.50
2018-05-21T03:08:35.888Z,74.50
2018-05-21T03:11:02.998Z,75.40
2018-05-21T03:13:29.329Z,74.90
2018-05-21T03:15:55.638Z,75.10
2018-05-21T03:18:22.065Z,75.40
2018-05-21T03:20:48.408Z,74.80
2018-05-21T03:23:14.738Z,74.90
2018-05-21T03:25:41.109Z,75.20
2018-05-21T03:28:07.463Z,75.30
2018-05-21T03:30:34.573Z,75.20
2018-05-21T03:33:00.899Z,75.20
2018-05-21T03:35:27.253Z,75.00
2018-05-21T03:37:53.622Z,74.10
2018-05-21T03:40:20.054Z,74.20
2018-05-21T03:42:46.429Z,74.20
2018-05-21T03:45:12.815Z,74.70
2018-05-21T03:47:39.141Z,73.80
2018-05-21T03:50:06.245Z,73.50
2018-05-21T03:52:32.582Z,73.50
2018-05-21T03:54:58.901Z,73.80
2018-05-21T03:57:25.370Z,74.00
2018-05-21T04:00:04.023Z,74.30
2018-05-21T04:02:42.474Z,74.30
2018-05-21T04:05:08.843Z,74.30
2018-05-21T04:07:36.081Z,75.20
2018-05-21T04:10:02.454Z,75.10
2018-05-21T04:12:28.846Z,75.20
2018-05-21T04:14:55.210Z,75.20
2018-05-21T04:17:21.796Z,75.40
2018-05-21T04:19:48.225Z,75.60
2018-05-21T04:22:14.588Z,75.80
2018-05-21T04:24:41.869Z,75.90
2018-05-21T04:27:08.381Z,76.00
2018-05-21T04:29:36.076Z,76.30
2018-05-21T04:32:02.690Z,76.20
2018-05-21T04:34:29.792Z,76.60
2018-05-21T04:36:56.378Z,76.60
2018-05-21T04:39:23.543Z,76.60
2018-05-21T04:41:49.913Z,76.60
2018-05-21T04:44:16.239Z,76.50
2018-05-21T04:46:42.585Z,75.80
2018-05-21T04:49:08.897Z,75.30
2018-05-21T04:51:35.230Z,75.20
2018-05-21T04:54:01.615Z,74.80
2018-05-21T04:56:28.718Z,74.50
2018-05-21T04:58:55.046Z,74.50
2018-05-21T05:01:21.376Z,74.90
2018-05-21T05:03:47.705Z,74.70
2018-05-21T05:06:14.022Z,74.60
2018-05-21T05:08:40.329Z,74.50
2018-05-21T05:11:06.696Z,74.70
2018-05-21T05:13:33.005Z,74.50
2018-05-21T05:15:59.337Z,74.50
2018-05-21T05:18:25.670Z,74.80
2018-05-21T05:20:52.214Z,75.20
2018-05-21T05:23:18.554Z,75.00
2018-05-21T05:25:44.909Z,75.10
2018-05-21T05:28:11.465Z,74.80
2018-05-21T05:30:38.517Z,74.40
2018-05-21T05:33:05.584Z,74.20
2018-05-21T05:35:31.991Z,74.10
2018-05-21T05:37:59.105Z,74.00
2018-05-21T05:40:25.826Z,74.00
2018-05-21T05:42:52.273Z,73.80
2018-05-21T05:45:18.585Z,73.80
2018-05-21T05:47:44.949Z,74.50
2018-05-21T05:50:11.277Z,74.40
2018-05-21T05:52:37.578Z,73.80
2018-05-21T05:55:03.990Z,72.80
2018-05-21T05:57:31.390Z,72.60
2018-05-21T05:59:57.697Z,72.10
2018-05-21T06:02:24.053Z,71.40
2018-05-21T06:04:50.421Z,70.70
2018-05-21T06:07:17.891Z,68.80
2018-05-21T06:09:44.203Z,68.60
2018-05-21T06:12:11.249Z,67.00
2018-05-21T06:14:38.351Z,65.10
2018-05-21T06:17:04.922Z,65.10
2018-05-21T06:19:31.221Z,64.70
2018-05-21T06:21:57.577Z,63.40
2018-05-21T06:24:24.042Z,62.80
2018-05-21T06:26:51.429Z,60.60
2018-05-21T06:29:17.737Z,61.30
2018-05-21T06:31:44.057Z,59.50
2018-05-21T06:34:11.252Z,58.30
2018-05-21T06:36:37.480Z,58.20
2018-05-21T06:39:03.853Z,57.10
2018-05-21T06:41:30.261Z,57.50
2018-05-21T06:43:56.601Z,55.80
2018-05-21T06:46:22.977Z,54.60
2018-05-21T06:48:49.290Z,55.00
2018-05-21T06:51:16.381Z,54.20
2018-05-21T06:53:42.692Z,54.10
2018-05-21T06:56:08.985Z,53.10
2018-05-21T06:58:35.321Z,53.10
2018-05-21T07:01:02.410Z,51.40
2018-05-21T07:03:28.742Z,51.40
2018-05-21T07:05:55.062Z,49.80
2018-05-21T07:08:21.540Z,49.80
2018-05-21T07:10:47.869Z,49.40
2018-05-21T07:13:14.214Z,48.20
2018-05-21T07:15:40.546Z,47.50
2018-05-21T07:18:07.736Z,47.40
2018-05-21T07:20:34.070Z,47.30
2018-05-21T07:23:00.390Z,47.20
2018-05-21T07:25:27.481Z,46.10
2018-05-21T07:27:54.045Z,46.00
2018-05-21T07:30:20.373Z,45.90
2018-05-21T07:32:46.682Z,45.70
2018-05-21T07:35:13.021Z,46.00
2018-05-21T07:37:39.360Z,45.00
2018-05-21T07:40:05.773Z,44.50
2018-05-21T07:42:32.083Z,43.90
2018-05-21T07:44:58.437Z,44.60
2018-05-21T07:47:24.946Z,44.10
2018-05-21T07:49:51.475Z,44.30
2018-05-21T07:52:17.806Z,44.60
2018-05-21T07:54:44.157Z,45.00
2018-05-21T07:57:10.729Z,44.40
2018-05-21T07:59:37.066Z,43.10
2018-05-21T08:02:03.505Z,43.70
2018-05-21T08:04:30.633Z,43.40
2018-05-21T08:06:56.970Z,43.40
2018-05-21T08:09:23.610Z,41.80
2018-05-21T08:11:49.939Z,42.90
2018-05-21T08:14:16.303Z,43.20
2018-05-21T08:16:42.636Z,43.10
2018-05-21T08:19:09.699Z,42.10
2018-05-21T08:21:36.077Z,42.10
2018-05-21T08:24:02.426Z,42.70
2018-05-21T08:26:29.525Z,42.00
2018-05-21T08:28:56.079Z,42.00
2018-05-21T08:31:22.414Z,42.20
2018-05-21T08:33:48.720Z,41.60
2018-05-21T08:36:15.049Z,41.40
2018-05-21T08:38:41.397Z,41.20
2018-05-21T08:41:07.754Z,42.00
2018-05-21T08:43:34.077Z,41.20
2018-05-21T08:46:00.381Z,39.40
2018-05-21T08:48:26.838Z,39.40
2018-05-21T08:50:53.112Z,40.70
2018-05-21T08:53:19.413Z,39.70
2018-05-21T08:55:46.066Z,39.80
2018-05-21T08:58:12.590Z,39.90
2018-05-21T09:00:38.912Z,39.10
2018-05-21T09:03:05.241Z,38.30
2018-05-21T09:05:31.577Z,37.40
2018-05-21T09:07:58.872Z,37.40
2018-05-21T09:10:25.183Z,38.50
2018-05-21T09:12:52.395Z,38.70
2018-05-21T09:15:18.749Z,38.70
2018-05-21T09:17:45.207Z,37.40
2018-05-21T09:20:11.565Z,36.90
2018-05-21T09:22:37.915Z,36.00
2018-05-21T09:25:04.313Z,35.50
2018-05-21T09:27:30.757Z,37.50
2018-05-21T09:29:57.121Z,36.80
2018-05-21T09:32:23.730Z,37.60
2018-05-21T09:34:50.025Z,37.60
2018-05-21T09:37:17.138Z,36.80
2018-05-21T09:39:43.484Z,36.80
2018-05-21T09:42:09.802Z,36.00
2018-05-21T09:44:36.173Z,36.20
2018-05-21T09:47:03.304Z,37.60
2018-05-21T09:49:30.441Z,37.40
2018-05-21T09:51:56.838Z,37.40
2018-05-21T09:54:23.269Z,37.40
2018-05-21T09:56:49.574Z,37.50
2018-05-21T09:59:15.929Z,37.20
2018-05-21T10:01:42.261Z,37.30
2018-05-21T10:04:08.629Z,37.60
2018-05-21T10:06:34.980Z,38.00
2018-05-21T10:09:02.157Z,36.90
2018-05-21T10:11:28.521Z,36.80
2018-05-21T10:13:54.928Z,35.20
2018-05-21T10:16:21.264Z,37.70
2018-05-21T10:18:47.641Z,38.80
2018-05-21T10:21:13.993Z,37.50
2018-05-21T10:23:41.055Z,38.60
2018-05-21T10:26:07.471Z,38.60
2018-05-21T10:28:33.910Z,37.20
2018-05-21T10:31:00.977Z,36.20
2018-05-21T10:33:27.285Z,36.20
2018-05-21T10:35:54.397Z,36.80
2018-05-21T10:38:20.849Z,36.90
2018-05-21T10:40:47.148Z,35.90
2018-05-21T10:43:13.501Z,38.60
2018-05-21T10:45:39.808Z,39.60
2018-05-21T10:48:06.365Z,39.00
2018-05-21T10:50:32.708Z,38.70
2018-05-21T10:52:59.029Z,39.10
2018-05-21T10:55:25.445Z,38.90
2018-05-21T10:57:52.030Z,39.30
2018-05-21T11:00:19.097Z,37.00
2018-05-21T11:02:45.414Z,37.00
2018-05-21T11:05:12.609Z,37.00
2018-05-21T11:07:39.252Z,37.00
2018-05-21T11:10:05.590Z,36.10
2018-05-21T11:12:31.933Z,34.90
2018-05-21T11:14:58.269Z,35.00
2018-05-21T11:17:24.813Z,36.90
2018-05-21T11:19:51.879Z,36.70
2018-05-21T11:22:18.280Z,36.60
2018-05-21T11:24:44.664Z,36.40
2018-05-21T11:27:11.249Z,34.80
2018-05-21T11:29:37.595Z,35.40
2018-05-21T11:32:04.708Z,35.00
2018-05-21T11:34:31.041Z,34.90
2018-05-21T11:36:57.362Z,34.40
2018-05-21T11:39:23.746Z,35.40
2018-05-21T11:41:50.785Z,34.90
2018-05-21T11:44:17.869Z,33.50
2018-05-21T11:46:44.226Z,33.40
2018-05-21T11:49:10.551Z,34.20
2018-05-21T11:51:36.870Z,34.00
2018-05-21T11:54:03.264Z,34.30
2018-05-21T11:56:30.305Z,33.70
2018-05-21T11:58:57.437Z,34.10
2018-05-21T12:01:24.157Z,34.10
2018-05-21T12:03:50.505Z,35.50
2018-05-21T12:06:16.846Z,33.90
2018-05-21T12:08:43.149Z,35.20
2018-05-21T12:11:09.481Z,34.70
2018-05-21T12:13:35.840Z,33.90
2018-05-21T12:16:02.197Z,33.90
2018-05-21T12:18:28.829Z,34.00
2018-05-21T12:20:56.130Z,34.20
2018-05-21T12:23:22.504Z,34.10
2018-05-21T12:25:49.586Z,34.00
2018-05-21T12:28:16.244Z,33.90
2018-05-21T12:30:42.578Z,33.40
2018-05-21T12:33:08.914Z,32.60
2018-05-21T12:35:35.262Z,33.20
2018-05-21T12:38:01.689Z,32.90
2018-05-21T12:40:28.053Z,31.00
2018-05-21T12:42:55.285Z,32.50
2018-05-21T12:45:21.586Z,32.40
2018-05-21T12:47:48.169Z,32.50
2018-05-21T12:50:15.251Z,33.50
2018-05-21T12:52:41.557Z,33.50
2018-05-21T12:55:08.651Z,33.40
2018-05-21T12:57:35.216Z,33.40
2018-05-21T13:00:01.613Z,34.40
2018-05-21T13:02:27.945Z,35.10
2018-05-21T13:04:54.335Z,33.70
2018-05-21T13:07:21.666Z,34.30
2018-05-21T13:09:48.001Z,34.30
2018-05-21T13:12:14.298Z,35.70
2018-05-21T13:14:40.620Z,36.50
2018-05-21T13:17:07.226Z,35.50
2018-05-21T13:19:34.309Z,37.80
2018-05-21T13:22:00.613Z,37.90
2018-05-21T13:24:26.966Z,37.50
2018-05-21T13:26:53.351Z,37.50
2018-05-21T13:29:20.405Z,38.00
2018-05-21T13:31:47.501Z,38.40
2018-05-21T13:34:13.826Z,38.30
2018-05-21T13:36:40.173Z,38.30
2018-05-21T13:39:06.513Z,39.40
2018-05-21T13:41:32.833Z,39.40
2018-05-21T13:43:59.139Z,39.10
2018-05-21T13:46:25.598Z,38.90
2018-05-21T13:48:51.897Z,39.90
2018-05-21T13:51:18.229Z,39.00
2018-05-21T13:53:44.534Z,39.70
2018-05-21T13:56:10.920Z,39.70
2018-05-21T13:58:37.273Z,39.50
2018-05-21T14:01:03.614Z,40.30
2018-05-21T14:03:29.949Z,40.00
2018-05-21T14:05:57.283Z,40.00
2018-05-21T14:08:23.817Z,40.00
2018-05-21T14:10:50.118Z,40.00
2018-05-21T14:13:16.489Z,40.40
2018-05-21T14:15:42.789Z,39.00
2018-05-21T14:18:09.353Z,38.40
2018-05-21T14:20:35.728Z,39.90
2018-05-21T14:23:02.080Z,39.00
2018-05-21T14:25:29.239Z,40.00
2018-05-21T14:28:01.361Z,40.00
2018-05-21T14:30:28.453Z,38.80
2018-05-21T14:32:55.526Z,39.60
2018-05-21T14:35:21.881Z,39.60
2018-05-21T14:37:48.372Z,38.10
2018-05-21T14:40:14.698Z,37.00
2018-05-21T14:42:41.030Z,37.50
2018-05-21T14:45:07.344Z,37.40
2018-05-21T14:47:33.926Z,38.00
2018-05-21T14:50:00.248Z,38.30
2018-05-21T14:52:28.095Z,38.20
2018-05-21T14:54:54.463Z,38.10
2018-05-21T14:57:21.613Z,37.60
2018-05-21T14:59:47.937Z,37.60
2018-05-21T15:02:14.261Z,36.90
2018-05-21T15:04:40.588Z,36.90
2018-05-21T15:07:07.147Z,39.10
2018-05-21T15:09:34.269Z,38.30
2018-05-21T15:12:00.569Z,38.30
2018-05-21T15:14:27.123Z,38.60
2018-05-21T15:16:53.446Z,37.30
2018-05-21T15:19:19.764Z,37.10
2018-05-21T15:21:46.105Z,37.10
2018-05-21T15:24:12.474Z,37.20
2018-05-21T15:26:38.827Z,37.70
2018-05-21T15:29:05.897Z,37.90
2018-05-21T15:31:32.994Z,39.30
2018-05-21T15:33:59.337Z,39.20
2018-05-21T15:36:25.726Z,39.30
2018-05-21T15:38:52.062Z,39.80
2018-05-21T15:41:18.529Z,40.00
2018-05-21T15:43:44.840Z,41.70
2018-05-21T15:46:11.167Z,39.90
2018-05-21T15:48:38.292Z,41.30
2018-05-21T15:51:04.590Z,41.30
2018-05-21T15:53:30.901Z,40.10
2018-05-21T15:55:57.282Z,38.80
2018-05-21T15:58:23.617Z,38.80
2018-05-21T16:00:49.921Z,36.90
2018-05-21T16:03:16.979Z,37.30
2018-05-21T16:05:43.290Z,37.30
2018-05-21T16:08:10.564Z,37.90
2018-05-21T16:10:37.216Z,37.90
2018-05-21T16:13:03.549Z,38.80
2018-05-21T16:15:30.681Z,38.20
2018-05-21T16:17:58.159Z,36.60
2018-05-21T16:20:24.445Z,36.60
2018-05-21T16:22:51.521Z,36.40
2018-05-21T16:25:17.866Z,36.30
2018-05-21T16:27:44.318Z,35.20
2018-05-21T16:30:10.665Z,35.60
2018-05-21T16:32:36.997Z,35.60
2018-05-21T16:35:03.337Z,34.10
2018-05-21T16:37:29.994Z,34.60
2018-05-21T16:39:57.065Z,32.20
2018-05-21T16:42:23.435Z,32.20
2018-05-21T16:44:49.779Z,33.40
2018-05-21T16:47:16.358Z,32.50
2018-05-21T16:49:42.666Z,32.10
2018-05-21T16:52:09.037Z,31.50
2018-05-21T16:54:35.374Z,31.70
2018-05-21T16:57:01.853Z,32.50
2018-05-21T16:59:28.221Z,32.20
2018-05-21T17:01:54.557Z,32.30
2018-05-21T17:04:20.881Z,33.00
2018-05-21T17:06:47.194Z,32.20
2018-05-21T17:09:13.530Z,32.20
2018-05-21T17:11:40.614Z,33.50
2018-05-21T17:14:06.925Z,33.40
2018-05-21T17:16:33.249Z,34.00
2018-05-21T17:18:59.600Z,34.10
2018-05-21T17:21:25.986Z,34.70
2018-05-21T17:23:52.299Z,34.90
2018-05-21T17:26:18.642Z,34.90
2018-05-21T17:28:45.000Z,34.60
2018-05-21T17:31:11.337Z,35.40
2018-05-21T17:33:37.653Z,35.30
2018-05-21T17:36:04.717Z,35.40
2018-05-21T17:38:31.092Z,35.40
2018-05-21T17:40:57.416Z,34.60
2018-05-21T17:43:23.733Z,35.30
2018-05-21T17:45:50.077Z,36.50
2018-05-21T17:48:16.621Z,37.00
2018-05-21T17:50:42.926Z,36.10
2018-05-21T17:53:09.289Z,35.60
2018-05-21T17:55:35.608Z,36.30
2018-05-21T17:58:02.221Z,36.90
2018-05-21T18:00:29.009Z,37.30
2018-05-21T18:02:55.386Z,37.60
2018-05-21T18:05:21.849Z,38.10
2018-05-21T18:07:48.350Z,38.70
2018-05-21T18:10:14.757Z,38.00
2018-05-21T18:12:41.929Z,38.50
2018-05-21T18:15:08.992Z,38.60
2018-05-21T18:17:35.405Z,38.60
2018-05-21T18:20:01.734Z,38.90
2018-05-21T18:22:28.076Z,38.70
2018-05-21T18:24:54.416Z,38.40
2018-05-21T18:27:25.829Z,38.80
2018-05-21T18:29:53.001Z,38.50
2018-05-21T18:32:19.365Z,38.50
2018-05-21T18:34:45.704Z,38.50
2018-05-21T18:37:12.256Z,38.00
2018-05-21T18:39:38.581Z,38.30
2018-05-21T18:42:04.960Z,38.60
2018-05-21T18:44:32.094Z,39.60
2018-05-21T18:46:59.326Z,39.50
2018-05-21T18:49:25.655Z,39.40
2018-05-21T18:51:53.453Z,40.70
2018-05-21T18:54:19.758Z,40.70
2018-05-21T18:56:46.129Z,41.40
2018-05-21T18:59:12.596Z,42.00
2018-05-21T19:01:38.957Z,42.50
2018-05-21T19:04:05.324Z,42.90
2018-05-21T19:06:32.417Z,44.20
2018-05-21T19:08:58.969Z,44.20
2018-05-21T19:11:25.309Z,44.90
2018-05-21T19:13:51.649Z,45.60
2018-05-21T19:16:17.997Z,45.60
2018-05-21T19:18:44.310Z,45.90
2018-05-21T19:21:10.631Z,46.00
2018-05-21T19:23:37.818Z,44.00
2018-05-21T19:26:04.357Z,44.00
2018-05-21T19:28:31.027Z,45.80
2018-05-21T19:30:57.526Z,46.30
2018-05-21T19:33:23.863Z,45.70
2018-05-21T19:35:50.189Z,45.30
2018-05-21T19:38:16.552Z,46.20
2018-05-21T19:40:42.889Z,46.00
2018-05-21T19:43:09.257Z,46.20
2018-05-21T19:45:36.401Z,46.70
2018-05-21T19:48:03.505Z,47.50
2018-05-21T19:50:29.969Z,47.50
2018-05-21T19:52:56.481Z,47.70
2018-05-21T19:55:23.714Z,47.80
2018-05-21T19:57:50.208Z,48.30
2018-05-21T20:00:16.665Z,48.10
2018-05-21T20:02:43.097Z,47.70
2018-05-21T20:05:09.569Z,47.60
2018-05-21T20:07:36.177Z,48.00
2018-05-21T20:10:03.356Z,49.30
2018-05-21T20:12:29.902Z,49.30
2018-05-21T20:14:57.149Z,50.10
2018-05-21T20:17:23.776Z,50.00
2018-05-21T20:19:50.293Z,50.00
2018-05-21T20:22:16.805Z,50.40
2018-05-21T20:24:43.213Z,51.00
2018-05-21T20:27:09.850Z,51.50
2018-05-21T20:29:37.772Z,51.00
2018-05-21T20:32:04.177Z,50.70
2018-05-21T20:34:30.653Z,52.00
2018-05-21T20:36:57.090Z,52.50
2018-05-21T20:39:24.246Z,54.20
2018-05-21T20:41:50.683Z,54.20
2018-05-21T20:44:17.783Z,54.60
2018-05-21T20:46:44.127Z,54.70
2018-05-21T20:49:10.899Z,55.00
2018-05-21T20:51:37.218Z,55.40
2018-05-21T20:54:03.665Z,55.80
2018-05-21T20:56:29.983Z,56.50
2018-05-21T20:58:56.576Z,55.70
2018-05-21T21:01:23.032Z,55.80
2018-05-21T21:03:49.350Z,56.40
2018-05-21T21:06:15.702Z,55.00
2018-05-21T21:08:42.059Z,55.20
2018-05-21T21:11:08.401Z,55.10
2018-05-21T21:13:34.725Z,55.30
2018-05-21T21:16:01.206Z,55.30
2018-05-21T21:18:27.513Z,55.50
2018-05-21T21:20:54.598Z,56.70
2018-05-21T21:23:21.036Z,56.60
2018-05-21T21:25:47.301Z,56.80
2018-05-21T21:28:13.629Z,56.30
2018-05-21T21:30:39.957Z,56.50
2018-05-21T21:33:06.275Z,56.90
2018-05-21T21:35:32.635Z,57.10
2018-05-21T21:37:59.184Z,56.90
2018-05-21T21:40:26.249Z,57.60
2018-05-21T21:42:53.343Z,57.70
2018-05-21T21:45:19.715Z,57.70
2018-05-21T21:47:46.942Z,58.30
2018-05-21T21:50:13.314Z,58.30
2018-05-21T21:52:40.413Z,58.50
2018-05-21T21:55:06.797Z,58.50
2018-05-21T21:57:33.389Z,58.60
2018-05-21T21:59:59.777Z,58.80
2018-05-21T22:02:26.136Z,59.10
2018-05-21T22:04:52.458Z,59.20
2018-05-21T22:07:18.945Z,59.40
2018-05-21T22:09:46.167Z,59.90
2018-05-21T22:12:12.526Z,59.90
2018-05-21T22:14:39.570Z,60.40
2018-05-21T22:17:06.013Z,60.20
2018-05-21T22:19:33.117Z,60.00
2018-05-21T22:21:59.533Z,59.90
2018-05-21T22:24:25.837Z,60.60
2018-05-21T22:26:52.917Z,61.00
2018-05-21T22:29:19.281Z,60.90
2018-05-21T22:31:45.605Z,60.60
2018-05-21T22:34:11.921Z,60.80
2018-05-21T22:36:38.261Z,61.40
2018-05-21T22:39:04.873Z,61.70
2018-05-21T22:41:31.441Z,61.80
2018-05-21T22:43:57.791Z,62.20
2018-05-21T22:46:24.901Z,63.00
2018-05-21T22:48:51.245Z,63.00
2018-05-21T22:51:17.551Z,63.10
2018-05-21T22:53:43.889Z,63.40
2018-05-21T22:56:10.201Z,63.30
2018-05-21T22:58:36.509Z,63.60
2018-05-21T23:01:02.873Z,63.70
2018-05-21T23:03:29.381Z,64.00
2018-05-21T23:05:55.706Z,64.00
2018-05-21T23:08:22.886Z,64.00
2018-05-21T23:10:49.253Z,63.80
2018-05-21T23:13:15.565Z,63.90
2018-05-21T23:15:41.938Z,63.50
2018-05-21T23:18:09.136Z,63.70
2018-05-21T23:20:35.437Z,63.60
2018-05-21T23:23:02.136Z,63.50
2018-05-21T23:25:28.570Z,63.70
2018-05-21T23:27:55.234Z,63.60
2018-05-21T23:30:21.554Z,64.00
2018-05-21T23:32:47.925Z,63.90
2018-05-21T23:35:14.269Z,63.80
2018-05-21T23:37:40.821Z,64.00
2018-05-21T23:40:07.922Z,64.20
2018-05-21T23:42:34.288Z,63.80
2018-05-21T23:45:00.611Z,64.10
2018-05-21T23:47:27.275Z,64.50
2018-05-21T23:49:53.585Z,64.60
2018-05-21T23:52:19.929Z,64.40
2018-05-21T23:54:46.274Z,64.70
2018-05-21T23:57:12.714Z,64.60
2018-05-21T23:59:39.029Z,64.00
